createdAt,value
2018-04-11T00:02:57.459Z,11.10
2018-04-11T00:08:00.319Z,11.10
2018-04-11T00:13:03.292Z,11.20
2018-04-11T00:18:06.184Z,11.30
2018-04-11T00:23:09.078Z,11.20
2018-04-11T00:28:11.916Z,11.30
2018-04-11T00:33:15.722Z,11.30
2018-04-11T00:38:18.768Z,11.30
2018-04-11T00:43:21.680Z,11.40
2018-04-11T00:48:26.894Z,11.20
2018-04-11T00:53:30.082Z,11.30
2018-04-11T00:58:33.103Z,11.40
2018-04-11T01:03:37.033Z,11.00
2018-04-11T01:08:39.936Z,10.90
2018-04-11T01:13:43.067Z,10.90
2018-04-11T01:18:46.070Z,10.90
2018-04-11T01:23:49.010Z,10.90
2018-04-11T01:28:54.742Z,10.80
2018-04-11T01:33:58.978Z,10.90
2018-04-11T01:39:03.715Z,10.90
2018-04-11T01:44:06.790Z,11.00
2018-04-11T01:49:10.020Z,10.90
2018-04-11T01:54:13.131Z,10.80
2018-04-11T01:59:16.244Z,10.90
2018-04-11T02:04:20.038Z,10.90
2018-04-11T02:09:23.673Z,10.90
2018-04-11T02:14:27.765Z,11.00
2018-04-11T02:19:30.820Z,10.90
2018-04-11T02:24:33.732Z,11.00
2018-04-11T02:29:36.816Z,10.90
2018-04-11T02:34:39.826Z,10.90
2018-04-11T02:39:42.707Z,11.00
2018-04-11T02:44:45.535Z,11.10
2018-04-11T02:49:49.504Z,11.20
2018-04-11T02:54:52.888Z,11.30
2018-04-11T02:59:55.721Z,11.40
2018-04-11T03:04:58.577Z,11.40
2018-04-11T03:10:01.615Z,11.40
2018-04-11T03:15:04.508Z,11.30
2018-04-11T03:20:07.422Z,11.40
2018-04-11T03:25:11.175Z,11.40
2018-04-11T03:30:14.185Z,11.40
2018-04-11T03:35:17.516Z,11.40
2018-04-11T03:40:20.866Z,11.40
2018-04-11T03:45:23.951Z,11.40
2018-04-11T03:50:26.904Z,11.40
2018-04-11T03:55:31.270Z,11.40
2018-04-11T04:00:34.172Z,11.40
2018-04-11T04:05:37.191Z,11.40
2018-04-11T04:10:40.260Z,11.30
2018-04-11T04:15:55.715Z,11.30
2018-04-11T04:20:58.739Z,11.30
2018-04-11T04:26:01.688Z,11.30
2018-04-11T04:31:06.317Z,11.30
2018-04-11T04:36:09.704Z,11.20
2018-04-11T04:41:13.876Z,11.10
2018-04-11T04:46:16.671Z,10.90
2018-04-11T04:51:19.712Z,10.90
2018-04-11T05:01:51.797Z,10.70
2018-04-11T05:06:55.720Z,10.60
2018-04-11T05:11:58.620Z,10.70
2018-04-11T05:17:01.520Z,10.80
2018-04-11T05:22:04.872Z,11.00
2018-04-11T05:27:07.752Z,10.90
2018-04-11T05:32:10.685Z,11.00
2018-04-11T05:37:13.540Z,11.10
2018-04-11T05:42:16.488Z,11.10
2018-04-11T05:47:19.287Z,11.20
2018-04-11T05:52:22.164Z,11.30
2018-04-11T05:57:25.027Z,11.20
2018-04-11T06:02:27.896Z,11.30
2018-04-11T06:07:30.781Z,11.50
2018-04-11T06:12:33.856Z,11.50
2018-04-11T06:17:36.902Z,11.60
2018-04-11T06:22:39.748Z,11.50
2018-04-11T06:27:42.637Z,11.60
2018-04-11T06:32:45.499Z,11.70
2018-04-11T06:37:48.341Z,11.70
2018-04-11T06:42:51.151Z,11.40
2018-04-11T06:47:54.027Z,11.50
2018-04-11T06:52:56.860Z,11.60
2018-04-11T06:57:59.748Z,11.60
2018-04-11T07:03:02.593Z,11.80
2018-04-11T07:08:05.597Z,11.90
2018-04-11T07:13:08.538Z,12.00
2018-04-11T07:18:11.451Z,12.00
2018-04-11T07:23:14.306Z,12.10
2018-04-11T07:28:17.149Z,12.00
2018-04-11T07:33:19.997Z,12.10
2018-04-11T07:38:22.964Z,12.20
2018-04-11T07:43:26.333Z,12.30
2018-04-11T07:48:31.037Z,12.30
2018-04-11T07:53:34.621Z,12.40
2018-04-11T07:58:38.397Z,12.50
2018-04-11T08:03:41.231Z,12.60
2018-04-11T08:08:44.070Z,12.50
2018-04-11T08:13:47.125Z,12.60
2018-04-11T08:18:50.797Z,12.70
2018-04-11T08:23:53.347Z,12.80
2018-04-11T08:28:58.887Z,13.00
2018-04-11T08:34:01.925Z,13.30
2018-04-11T08:39:05.015Z,13.40
2018-04-11T08:44:07.997Z,13.80
2018-04-11T08:49:10.995Z,14.10
2018-04-11T08:54:15.158Z,14.30
2018-04-11T08:59:18.974Z,14.50
2018-04-11T09:04:22.585Z,14.60
2018-04-11T09:09:25.648Z,14.70
2018-04-11T09:14:28.535Z,14.90
2018-04-11T09:19:31.371Z,15.10
2018-04-11T09:24:34.216Z,15.30
2018-04-11T09:29:37.151Z,15.60
2018-04-11T09:34:39.974Z,15.70
2018-04-11T09:39:43.792Z,16.20
2018-04-11T09:44:47.542Z,16.50
2018-04-11T09:49:50.463Z,16.60
2018-04-11T09:54:53.287Z,17.10
2018-04-11T09:59:56.131Z,17.40
2018-04-11T10:04:58.933Z,17.80
2018-04-11T10:10:01.792Z,17.80
2018-04-11T10:15:04.793Z,18.00
2018-04-11T10:25:49.827Z,18.90
2018-04-11T10:30:54.383Z,18.80
2018-04-11T10:35:59.230Z,18.90
2018-04-11T10:41:04.284Z,18.80
2018-04-11T10:46:08.896Z,18.40
2018-04-11T10:51:18.452Z,19.00
2018-04-11T10:56:26.874Z,19.60
2018-04-11T11:01:29.724Z,20.00
2018-04-11T11:06:33.053Z,19.80
2018-04-11T11:11:36.879Z,19.70
2018-04-11T11:16:41.066Z,20.50
2018-04-11T11:21:43.900Z,20.50
2018-04-11T11:26:47.383Z,20.90
2018-04-11T11:31:50.270Z,21.60
2018-04-11T11:36:53.180Z,21.20
2018-04-11T11:41:56.114Z,20.80
2018-04-11T11:46:59.013Z,21.40
2018-04-11T11:52:02.608Z,21.40
2018-04-11T11:57:05.408Z,21.90
2018-04-11T12:02:08.258Z,22.80
2018-04-11T12:07:11.375Z,22.80
2018-04-11T12:12:14.295Z,23.00
2018-04-11T12:17:17.157Z,23.50
2018-04-11T12:22:20.028Z,23.50
2018-04-11T12:27:22.863Z,23.60
2018-04-11T12:32:25.725Z,23.70
2018-04-11T12:37:28.610Z,23.90
2018-04-11T12:42:31.571Z,24.10
2018-04-11T12:47:35.695Z,24.10
2018-04-11T12:52:38.613Z,24.30
2018-04-11T12:57:41.520Z,23.60
2018-04-11T13:02:44.328Z,23.60
2018-04-11T13:07:47.345Z,23.80
2018-04-11T13:12:50.248Z,23.90
2018-04-11T13:17:55.688Z,23.80
2018-04-11T13:22:58.494Z,23.70
2018-04-11T13:28:01.740Z,23.60
2018-04-11T13:33:05.395Z,24.10
2018-04-11T13:38:08.238Z,24.00
2018-04-11T13:43:11.281Z,24.50
2018-04-11T13:48:14.315Z,24.50
2018-04-11T13:53:17.520Z,24.50
2018-04-11T13:58:20.398Z,24.80
2018-04-11T14:03:23.271Z,24.40
2018-04-11T14:08:26.251Z,24.00
2018-04-11T14:13:29.169Z,23.20
2018-04-11T14:18:33.375Z,22.90
2018-04-11T14:23:36.986Z,23.00
2018-04-11T14:28:40.021Z,23.30
2018-04-11T14:33:42.917Z,23.40
2018-04-11T14:38:45.818Z,23.60
2018-04-11T14:43:48.686Z,23.50
2018-04-11T14:48:53.743Z,23.40
2018-04-11T14:59:07.060Z,23.10
2018-04-11T15:04:09.961Z,23.10
2018-04-11T15:09:12.836Z,22.70
2018-04-11T15:14:15.741Z,22.70
2018-04-11T15:19:18.636Z,22.70
2018-04-11T15:24:24.621Z,22.30
2018-04-11T15:29:28.008Z,21.80
2018-04-11T15:34:30.892Z,21.60
2018-04-11T15:39:34.870Z,21.30
2018-04-11T15:44:37.744Z,21.60
2018-04-11T15:49:40.601Z,22.00
2018-04-11T15:54:43.446Z,22.40
2018-04-11T15:59:46.346Z,22.30
2018-04-11T16:04:49.258Z,22.30
2018-04-11T16:09:52.656Z,21.80
2018-04-11T16:14:56.672Z,21.40
2018-04-11T16:20:01.090Z,20.90
2018-04-11T16:25:04.581Z,20.50
2018-04-11T16:30:07.903Z,20.50
2018-04-11T16:35:11.428Z,21.00
2018-04-11T16:40:14.720Z,21.20
2018-04-11T16:45:18.111Z,21.00
2018-04-11T16:50:22.767Z,20.80
2018-04-11T16:55:49.420Z,20.50
2018-04-11T17:00:52.852Z,20.40
2018-04-11T17:05:56.204Z,20.30
2018-04-11T17:11:00.999Z,20.10
2018-04-11T17:16:04.498Z,19.90
2018-04-11T17:21:19.400Z,19.80
2018-04-11T17:26:34.464Z,19.80
2018-04-11T17:31:39.030Z,19.60
2018-04-11T17:36:42.520Z,19.50
2018-04-11T17:41:46.095Z,19.30
2018-04-11T17:46:48.990Z,19.00
2018-04-11T17:51:51.868Z,18.60
2018-04-11T17:56:55.096Z,18.30
2018-04-11T18:02:09.924Z,18.00
2018-04-11T18:07:13.645Z,17.80
2018-04-11T18:12:16.637Z,17.40
2018-04-11T18:17:19.737Z,17.30
2018-04-11T18:22:22.723Z,17.20
2018-04-11T18:27:25.796Z,16.80
2018-04-11T18:46:14.598Z,16.20
2018-04-11T18:51:17.767Z,15.90
2018-04-11T18:56:22.216Z,15.70
2018-04-11T19:01:29.313Z,15.50
2018-04-11T19:06:33.037Z,15.30
2018-04-11T19:11:37.307Z,15.10
2018-04-11T19:16:45.077Z,14.80
2018-04-11T19:21:50.544Z,14.60
2018-04-11T19:32:36.153Z,14.50
2018-04-11T19:37:39.556Z,14.50
2018-04-11T19:42:47.049Z,14.30
2018-04-11T19:47:50.275Z,14.10
2018-04-11T19:52:53.488Z,14.10
2018-04-11T19:57:56.382Z,13.80
2018-04-11T20:03:00.719Z,13.70
2018-04-11T20:08:04.507Z,13.70
2018-04-11T20:13:07.539Z,13.60
2018-04-11T20:18:13.247Z,13.60
2018-04-11T20:23:16.724Z,13.50
2018-04-11T20:28:19.699Z,13.40
2018-04-11T20:33:26.589Z,13.20
2018-04-11T20:50:26.051Z,13.00
2018-04-11T21:00:43.223Z,12.70
2018-04-11T21:05:50.402Z,12.60
2018-04-11T21:11:04.739Z,12.60
2018-04-11T21:16:09.272Z,12.50
2018-04-11T21:21:12.824Z,12.40
2018-04-11T21:26:19.163Z,12.10
2018-04-11T21:31:23.657Z,12.00
2018-04-11T21:42:06.964Z,11.90
2018-04-11T21:47:21.907Z,12.00
2018-04-11T21:57:48.226Z,11.80
2018-04-11T22:02:51.814Z,11.80
2018-04-11T22:07:55.958Z,12.00
2018-04-11T22:13:15.802Z,12.00
2018-04-11T22:23:41.864Z,11.70
2018-04-11T22:28:50.207Z,11.60
2018-04-11T22:33:53.093Z,11.70
2018-04-11T22:38:55.990Z,11.70
2018-04-11T22:43:58.897Z,11.80
2018-04-11T22:49:01.854Z,11.80
2018-04-11T22:54:04.833Z,11.70
2018-04-11T22:59:07.663Z,11.70
2018-04-11T23:04:10.640Z,11.60
2018-04-11T23:09:14.311Z,11.60
2018-04-11T23:14:17.205Z,11.50
2018-04-11T23:19:20.494Z,11.30
2018-04-11T23:24:24.789Z,11.30
2018-04-11T23:29:27.846Z,11.20
2018-04-11T23:34:30.710Z,11.10
2018-04-11T23:39:34.673Z,11.10
2018-04-11T23:44:37.985Z,11.00
2018-04-11T23:49:41.921Z,11.00
2018-04-11T23:54:44.892Z,10.60
2018-04-11T23:59:47.693Z,10.70
